createdAt,value
2022-08-17T00:00:42.900Z,27.70
2022-08-17T00:03:17.298Z,27.70
2022-08-17T00:05:44.047Z,27.70
2022-08-17T00:08:10.576Z,27.70
2022-08-17T00:10:37.119Z,27.60
2022-08-17T00:13:03.641Z,27.70
2022-08-17T00:15:30.185Z,27.70
2022-08-17T00:17:56.713Z,27.60
2022-08-17T00:20:23.388Z,27.70
2022-08-17T00:22:59.954Z,27.70
2022-08-17T00:25:26.516Z,27.70
2022-08-17T00:27:53.043Z,27.70
2022-08-17T00:30:20.532Z,27.60
2022-08-17T00:33:12.177Z,27.60
2022-08-17T00:35:33.599Z,27.60
2022-08-17T00:38:00.118Z,27.80
2022-08-17T00:40:26.648Z,27.70
2022-08-17T00:43:06.627Z,27.70
2022-08-17T00:45:33.188Z,27.70
2022-08-17T00:47:59.719Z,27.80
2022-08-17T00:50:26.252Z,27.70
2022-08-17T00:52:52.770Z,27.60
2022-08-17T00:55:19.314Z,27.60
2022-08-17T00:57:45.845Z,27.60
2022-08-17T01:00:12.384Z,27.60
2022-08-17T01:02:42.454Z,27.70
2022-08-17T01:05:09.590Z,27.60
2022-08-17T01:07:37.849Z,27.60
2022-08-17T01:10:04.640Z,27.60
2022-08-17T01:12:31.152Z,27.60
2022-08-17T01:14:57.683Z,27.60
2022-08-17T01:17:24.222Z,27.60
2022-08-17T01:19:50.741Z,27.60
2022-08-17T01:22:17.246Z,27.60
2022-08-17T01:24:43.756Z,27.60
2022-08-17T01:27:10.776Z,27.60
2022-08-17T01:29:37.410Z,27.50
2022-08-17T01:32:03.946Z,27.50
2022-08-17T01:34:42.415Z,27.50
2022-08-17T01:37:09.906Z,27.50
2022-08-17T01:39:36.449Z,27.50
2022-08-17T01:42:02.992Z,27.60
2022-08-17T01:44:29.501Z,27.50
2022-08-17T01:46:56.031Z,27.60
2022-08-17T01:49:22.553Z,27.40
2022-08-17T01:51:49.086Z,27.60
2022-08-17T01:54:15.608Z,27.50
2022-08-17T01:56:42.141Z,27.50
2022-08-17T01:59:08.677Z,27.50
2022-08-17T02:01:35.247Z,27.50
2022-08-17T02:04:02.030Z,27.50
2022-08-17T02:06:28.629Z,27.40
2022-08-17T02:09:02.737Z,27.50
2022-08-17T02:11:30.183Z,27.50
2022-08-17T02:14:02.378Z,27.50
2022-08-17T02:16:29.606Z,27.50
2022-08-17T02:19:04.500Z,27.40
2022-08-17T02:21:31.044Z,27.40
2022-08-17T02:23:57.581Z,27.40
2022-08-17T02:26:26.105Z,27.40
2022-08-17T02:28:53.218Z,27.40
2022-08-17T02:31:19.773Z,27.40
2022-08-17T02:33:46.289Z,27.40
2022-08-17T02:36:27.592Z,27.40
2022-08-17T02:38:54.181Z,27.40
2022-08-17T02:41:20.707Z,27.30
2022-08-17T02:43:47.228Z,27.30
2022-08-17T02:46:13.761Z,27.40
2022-08-17T02:48:40.281Z,27.40
2022-08-17T02:51:06.821Z,27.40
2022-08-17T02:53:35.770Z,27.40
2022-08-17T02:56:02.815Z,27.40
2022-08-17T02:58:35.283Z,27.40
2022-08-17T03:01:02.449Z,27.30
2022-08-17T03:03:28.976Z,27.40
2022-08-17T03:05:55.501Z,27.40
2022-08-17T03:08:22.020Z,27.30
2022-08-17T03:10:48.541Z,27.30
2022-08-17T03:13:15.075Z,27.40
2022-08-17T03:15:43.973Z,27.30
2022-08-17T03:18:20.109Z,27.30
2022-08-17T03:20:51.757Z,27.30
2022-08-17T03:23:18.270Z,27.40
2022-08-17T03:25:44.804Z,27.40
2022-08-17T03:28:12.244Z,27.40
2022-08-17T03:30:38.790Z,27.30
2022-08-17T03:33:05.304Z,27.30
2022-08-17T03:35:31.843Z,27.30
2022-08-17T03:38:00.348Z,27.40
2022-08-17T03:40:37.000Z,27.30
2022-08-17T03:43:14.011Z,27.30
2022-08-17T03:45:42.197Z,27.30
2022-08-17T03:48:09.775Z,27.30
2022-08-17T03:50:36.316Z,27.30
2022-08-17T03:53:02.838Z,27.30
2022-08-17T03:55:32.932Z,27.30
2022-08-17T03:58:02.964Z,27.30
2022-08-17T04:00:29.493Z,27.30
2022-08-17T04:02:56.035Z,27.30
2022-08-17T04:05:22.549Z,27.30
2022-08-17T04:07:49.077Z,27.30
2022-08-17T04:10:15.613Z,27.20
2022-08-17T04:12:42.152Z,27.30
2022-08-17T04:15:08.679Z,27.30
2022-08-17T04:17:35.208Z,27.30
2022-08-17T04:20:01.721Z,27.20
2022-08-17T04:22:32.978Z,27.30
2022-08-17T04:25:00.525Z,27.20
2022-08-17T04:27:27.064Z,27.20
2022-08-17T04:29:55.422Z,27.20
2022-08-17T04:33:00.578Z,27.20
2022-08-17T04:35:08.906Z,27.20
2022-08-17T04:37:35.443Z,27.20
2022-08-17T04:40:04.118Z,27.20
2022-08-17T04:42:30.807Z,27.20
2022-08-17T04:44:57.315Z,27.30
2022-08-17T04:47:23.830Z,27.20
2022-08-17T04:49:50.345Z,27.20
2022-08-17T04:52:29.875Z,27.20
2022-08-17T04:55:03.366Z,27.20
2022-08-17T04:57:29.880Z,27.20
2022-08-17T05:00:06.069Z,27.20
2022-08-17T05:02:32.592Z,27.20
2022-08-17T05:04:59.124Z,27.20
2022-08-17T05:07:31.311Z,27.20
2022-08-17T05:09:58.177Z,27.10
2022-08-17T05:12:24.688Z,27.10
2022-08-17T05:14:51.209Z,27.20
2022-08-17T05:17:17.729Z,27.20
2022-08-17T05:19:47.600Z,27.20
2022-08-17T05:22:16.577Z,27.20
2022-08-17T05:24:53.376Z,27.10
2022-08-17T05:27:20.516Z,27.20
2022-08-17T05:29:47.035Z,27.20
2022-08-17T05:32:38.146Z,27.20
2022-08-17T05:35:00.512Z,27.20
2022-08-17T05:37:27.245Z,27.20
2022-08-17T05:39:53.857Z,27.20
2022-08-17T05:42:20.429Z,27.20
2022-08-17T05:44:46.993Z,27.10
2022-08-17T05:47:13.514Z,27.10
2022-08-17T05:49:40.038Z,27.10
2022-08-17T05:52:06.558Z,27.20
2022-08-17T05:54:33.093Z,27.20
2022-08-17T05:56:59.624Z,27.20
2022-08-17T05:59:26.151Z,27.20
2022-08-17T06:01:52.666Z,27.20
2022-08-17T06:04:19.194Z,27.20
2022-08-17T06:06:45.728Z,27.20
2022-08-17T06:09:12.258Z,27.20
2022-08-17T06:11:38.763Z,27.20
2022-08-17T06:14:05.296Z,27.20
2022-08-17T06:16:34.315Z,27.30
2022-08-17T06:19:01.293Z,27.20
2022-08-17T06:21:30.499Z,27.20
2022-08-17T06:23:58.757Z,27.20
2022-08-17T06:26:29.602Z,27.20
2022-08-17T06:29:04.912Z,27.20
2022-08-17T06:31:34.707Z,27.30
2022-08-17T06:34:01.229Z,27.30
2022-08-17T06:36:27.770Z,27.20
2022-08-17T06:38:54.295Z,27.20
2022-08-17T06:41:20.822Z,27.20
2022-08-17T06:43:53.493Z,27.20
2022-08-17T06:46:20.022Z,27.20
2022-08-17T06:48:46.552Z,27.20
2022-08-17T06:51:18.414Z,27.20
2022-08-17T06:53:44.930Z,27.20
2022-08-17T06:56:11.458Z,27.30
2022-08-17T06:58:38.912Z,27.30
2022-08-17T07:01:06.982Z,27.30
2022-08-17T07:03:34.216Z,27.20
2022-08-17T07:06:00.743Z,27.30
2022-08-17T07:08:31.201Z,27.30
2022-08-17T07:10:59.520Z,27.30
2022-08-17T07:13:26.048Z,27.30
2022-08-17T07:15:56.508Z,27.30
2022-08-17T07:18:23.621Z,27.20
2022-08-17T07:20:51.719Z,27.30
2022-08-17T07:23:18.229Z,27.30
2022-08-17T07:25:44.775Z,27.30
2022-08-17T07:28:11.303Z,27.30
2022-08-17T07:30:46.782Z,27.30
2022-08-17T07:33:13.736Z,27.30
2022-08-17T07:35:41.326Z,27.30
2022-08-17T07:38:25.701Z,27.20
2022-08-17T07:40:53.208Z,27.30
2022-08-17T07:43:21.982Z,27.30
2022-08-17T07:45:50.083Z,27.30
2022-08-17T07:48:16.611Z,27.30
2022-08-17T07:50:49.480Z,27.30
2022-08-17T07:53:17.060Z,27.30
2022-08-17T07:55:43.596Z,27.30
2022-08-17T07:58:10.113Z,27.30
2022-08-17T08:00:36.644Z,27.30
2022-08-17T08:03:04.729Z,27.30
2022-08-17T08:05:50.052Z,27.30
2022-08-17T08:08:17.441Z,27.30
2022-08-17T08:10:45.199Z,27.30
2022-08-17T08:13:12.315Z,27.30
2022-08-17T08:15:40.973Z,27.30
2022-08-17T08:18:11.800Z,27.30
2022-08-17T08:20:53.297Z,27.30
2022-08-17T08:23:20.347Z,27.40
2022-08-17T08:25:50.798Z,27.40
2022-08-17T08:28:20.088Z,27.40
2022-08-17T08:30:46.645Z,27.40
2022-08-17T08:33:18.673Z,27.40
2022-08-17T08:35:45.203Z,27.40
2022-08-17T08:38:11.726Z,27.40
2022-08-17T08:40:38.271Z,27.40
2022-08-17T08:43:04.821Z,27.40
2022-08-17T08:45:31.348Z,27.40
2022-08-17T08:47:57.881Z,27.40
2022-08-17T08:50:37.506Z,27.40
2022-08-17T08:53:05.095Z,27.40
2022-08-17T08:55:32.628Z,27.40
2022-08-17T08:57:59.156Z,27.40
2022-08-17T09:00:25.689Z,27.40
2022-08-17T09:02:52.217Z,27.40
2022-08-17T09:05:18.809Z,27.40
2022-08-17T09:07:45.349Z,27.30
2022-08-17T09:10:11.903Z,27.40
2022-08-17T09:12:38.442Z,27.40
2022-08-17T09:15:07.230Z,27.40
2022-08-17T09:17:37.406Z,27.40
2022-08-17T09:20:03.934Z,27.40
2022-08-17T09:22:30.493Z,27.40
2022-08-17T09:24:57.031Z,27.50
2022-08-17T09:27:23.597Z,27.40
2022-08-17T09:29:50.128Z,27.40
2022-08-17T09:32:16.662Z,27.40
2022-08-17T09:34:43.571Z,27.40
2022-08-17T09:37:13.539Z,27.40
2022-08-17T09:39:40.078Z,27.50
2022-08-17T09:42:06.628Z,27.40
2022-08-17T09:44:33.165Z,27.50
2022-08-17T09:46:59.699Z,27.50
2022-08-17T09:49:26.226Z,27.50
2022-08-17T09:51:52.775Z,27.50
2022-08-17T09:54:38.154Z,27.50
2022-08-17T09:57:28.172Z,27.50
2022-08-17T09:59:51.964Z,27.50
2022-08-17T10:02:18.481Z,27.50
2022-08-17T10:04:45.003Z,27.40
2022-08-17T10:07:11.539Z,27.50
2022-08-17T10:09:38.051Z,27.50
2022-08-17T10:12:04.565Z,27.50
2022-08-17T10:14:37.990Z,27.50
2022-08-17T10:17:10.760Z,27.50
2022-08-17T10:19:37.276Z,27.40
2022-08-17T10:22:32.625Z,27.50
2022-08-17T10:25:21.331Z,27.40
2022-08-17T10:27:37.354Z,27.50
2022-08-17T10:30:03.919Z,27.50
2022-08-17T10:32:30.442Z,27.50
2022-08-17T10:34:56.975Z,27.50
2022-08-17T10:37:23.513Z,27.50
2022-08-17T10:39:52.015Z,27.50
2022-08-17T10:42:32.488Z,27.50
2022-08-17T10:44:59.668Z,27.50
2022-08-17T10:47:26.206Z,27.50
2022-08-17T10:49:52.723Z,27.50
2022-08-17T10:52:19.239Z,27.50
2022-08-17T10:54:45.744Z,27.50
2022-08-17T10:57:12.288Z,27.50
2022-08-17T10:59:38.831Z,27.50
2022-08-17T11:02:05.369Z,27.50
2022-08-17T11:04:31.910Z,27.50
2022-08-17T11:06:58.450Z,27.50
2022-08-17T11:09:24.996Z,27.50
2022-08-17T11:11:51.534Z,27.50
2022-08-17T11:14:18.052Z,27.50
2022-08-17T11:16:44.580Z,27.50
2022-08-17T11:19:11.099Z,27.50
2022-08-17T11:21:37.623Z,27.50
2022-08-17T11:24:04.139Z,27.50
2022-08-17T11:26:30.699Z,27.50
2022-08-17T11:28:57.231Z,27.50
2022-08-17T11:31:38.823Z,27.50
2022-08-17T11:34:06.176Z,27.50
2022-08-17T11:36:32.693Z,27.50
2022-08-17T11:38:59.202Z,27.50
2022-08-17T11:41:25.722Z,27.50
2022-08-17T11:43:52.237Z,27.50
2022-08-17T11:46:18.763Z,27.50
2022-08-17T11:48:45.290Z,27.50
2022-08-17T11:51:11.828Z,27.50
2022-08-17T11:53:38.369Z,27.50
2022-08-17T11:56:04.902Z,27.50
2022-08-17T11:58:31.436Z,27.50
2022-08-17T12:00:57.951Z,27.50
2022-08-17T12:03:24.529Z,27.50
2022-08-17T12:05:51.086Z,27.50
2022-08-17T12:08:17.618Z,27.50
2022-08-17T12:10:44.166Z,27.50
2022-08-17T12:13:10.687Z,27.50
2022-08-17T12:15:37.206Z,27.50
2022-08-17T12:18:03.733Z,27.50
2022-08-17T12:20:30.269Z,27.50
2022-08-17T12:22:56.810Z,27.40
2022-08-17T12:25:23.337Z,27.50
2022-08-17T12:28:06.754Z,27.50
2022-08-17T12:30:33.896Z,27.50
2022-08-17T12:33:00.419Z,27.50
2022-08-17T12:35:26.946Z,27.50
2022-08-17T12:37:53.476Z,27.50
2022-08-17T12:40:20.008Z,27.50
2022-08-17T12:42:46.545Z,27.50
2022-08-17T12:45:13.070Z,27.50
2022-08-17T12:47:39.590Z,27.50
2022-08-17T12:50:06.142Z,27.50
2022-08-17T12:52:32.723Z,27.50
2022-08-17T12:54:59.264Z,27.50
2022-08-17T12:57:25.818Z,27.50
2022-08-17T12:59:52.346Z,27.50
2022-08-17T13:02:18.879Z,27.50
2022-08-17T13:04:45.406Z,27.50
2022-08-17T13:07:11.927Z,27.50
2022-08-17T13:09:40.677Z,27.50
2022-08-17T13:12:07.672Z,27.50
2022-08-17T13:14:34.346Z,27.50
2022-08-17T13:17:00.853Z,27.60
2022-08-17T13:19:39.704Z,27.60
2022-08-17T13:22:07.210Z,27.60
2022-08-17T13:24:38.084Z,27.60
2022-08-17T13:27:07.839Z,27.60
2022-08-17T13:29:34.839Z,27.60
2022-08-17T13:32:04.086Z,27.60
2022-08-17T13:34:30.950Z,27.60
2022-08-17T13:36:59.832Z,27.60
2022-08-17T13:39:26.405Z,27.60
2022-08-17T13:41:52.936Z,27.60
2022-08-17T13:44:19.472Z,27.60
2022-08-17T13:46:45.989Z,27.60
2022-08-17T13:49:18.968Z,27.60
2022-08-17T13:51:45.507Z,27.60
2022-08-17T13:54:12.048Z,27.60
2022-08-17T13:56:39.599Z,27.60
2022-08-17T13:59:06.329Z,27.60
2022-08-17T14:01:32.949Z,27.60
2022-08-17T14:03:59.509Z,27.70
2022-08-17T14:06:53.327Z,27.70
2022-08-17T14:09:12.574Z,27.70
2022-08-17T14:11:39.131Z,27.70
2022-08-17T14:14:05.668Z,27.70
2022-08-17T14:16:32.205Z,27.70
2022-08-17T14:18:58.741Z,27.80
2022-08-17T14:21:25.304Z,27.70
2022-08-17T14:23:54.785Z,27.70
2022-08-17T14:26:21.655Z,27.70
2022-08-17T14:28:56.357Z,27.70
2022-08-17T14:31:23.518Z,27.70
2022-08-17T14:33:50.031Z,27.70
2022-08-17T14:36:16.553Z,27.80
2022-08-17T14:38:43.080Z,27.80
2022-08-17T14:41:09.606Z,27.80
2022-08-17T14:43:36.147Z,27.80
2022-08-17T14:46:02.675Z,27.80
2022-08-17T14:48:29.210Z,27.80
2022-08-17T14:50:55.739Z,27.80
2022-08-17T14:53:22.269Z,27.80
2022-08-17T14:55:48.806Z,27.80
2022-08-17T14:58:15.356Z,27.80
2022-08-17T15:00:41.887Z,27.80
2022-08-17T15:03:08.416Z,27.80
2022-08-17T15:05:34.941Z,27.80
2022-08-17T15:08:01.470Z,27.80
2022-08-17T15:10:28.008Z,27.80
2022-08-17T15:12:54.541Z,27.80
2022-08-17T15:15:21.059Z,27.80
2022-08-17T15:17:47.583Z,27.80
2022-08-17T15:20:15.040Z,27.80
2022-08-17T15:22:41.858Z,27.90
2022-08-17T15:25:08.369Z,27.90
2022-08-17T15:27:34.896Z,27.80
2022-08-17T15:30:01.433Z,27.90
2022-08-17T15:32:27.966Z,27.90
2022-08-17T15:34:54.504Z,27.90
2022-08-17T15:37:21.020Z,27.80
2022-08-17T15:39:47.548Z,27.80
2022-08-17T15:42:14.150Z,27.90
2022-08-17T15:44:40.688Z,27.80
2022-08-17T15:47:07.203Z,27.90
2022-08-17T15:49:33.727Z,27.90
2022-08-17T15:52:00.241Z,27.90
2022-08-17T15:54:26.795Z,27.90
2022-08-17T15:57:01.024Z,27.90
2022-08-17T15:59:27.562Z,27.90
2022-08-17T16:03:13.177Z,27.90
2022-08-17T16:04:44.071Z,27.90
2022-08-17T16:07:11.585Z,27.90
2022-08-17T16:09:38.109Z,27.90
2022-08-17T16:12:04.641Z,27.90
2022-08-17T16:14:35.010Z,27.90
2022-08-17T16:17:01.896Z,27.90
2022-08-17T16:19:28.439Z,27.90
2022-08-17T16:21:54.955Z,27.90
2022-08-17T16:24:21.490Z,27.90
2022-08-17T16:26:48.027Z,27.90
2022-08-17T16:29:14.573Z,27.90
2022-08-17T16:31:41.091Z,27.90
2022-08-17T16:34:16.878Z,27.90
2022-08-17T16:36:55.728Z,27.90
2022-08-17T16:39:22.861Z,27.90
2022-08-17T16:41:49.399Z,27.90
2022-08-17T16:44:15.953Z,27.90
2022-08-17T16:46:45.447Z,27.90
2022-08-17T16:49:12.612Z,27.90
2022-08-17T16:51:56.230Z,27.90
2022-08-17T16:54:22.768Z,27.90
2022-08-17T16:56:49.301Z,27.90
2022-08-17T16:59:30.402Z,27.90
2022-08-17T17:01:58.298Z,27.90
2022-08-17T17:04:24.819Z,27.90
2022-08-17T17:06:51.358Z,27.90
2022-08-17T17:09:17.874Z,27.90
2022-08-17T17:11:44.393Z,28.00
2022-08-17T17:14:10.932Z,27.90
2022-08-17T17:16:37.462Z,27.90
2022-08-17T17:19:05.713Z,27.90
2022-08-17T17:21:32.238Z,27.90
2022-08-17T17:23:58.753Z,27.90
2022-08-17T17:26:25.312Z,27.90
2022-08-17T17:28:51.846Z,27.90
2022-08-17T17:31:18.376Z,27.90
2022-08-17T17:33:44.919Z,27.90
2022-08-17T17:36:11.476Z,27.90
2022-08-17T17:38:37.997Z,27.90
2022-08-17T17:41:04.581Z,27.90
2022-08-17T17:43:40.147Z,27.90
2022-08-17T17:46:28.706Z,27.90
2022-08-17T17:48:53.907Z,27.90
2022-08-17T17:52:06.606Z,27.90
2022-08-17T17:54:06.958Z,28.00
2022-08-17T17:56:40.297Z,27.90
2022-08-17T17:59:12.804Z,27.90
2022-08-17T18:01:39.678Z,27.90
2022-08-17T18:04:17.657Z,27.90
2022-08-17T18:06:46.977Z,27.90
2022-08-17T18:09:19.234Z,27.90
2022-08-17T18:11:46.142Z,27.90
2022-08-17T18:14:17.940Z,27.90
2022-08-17T18:16:44.452Z,27.90
2022-08-17T18:19:10.981Z,27.90
2022-08-17T18:21:37.519Z,27.90
2022-08-17T18:24:04.055Z,27.90
2022-08-17T18:26:30.619Z,27.80
2022-08-17T18:28:58.686Z,27.80
2022-08-17T18:31:25.226Z,27.80
2022-08-17T18:33:51.760Z,27.80
2022-08-17T18:36:18.286Z,27.80
2022-08-17T18:38:44.794Z,27.80
2022-08-17T18:41:11.327Z,27.80
2022-08-17T18:43:53.036Z,27.80
2022-08-17T18:46:28.764Z,27.80
2022-08-17T18:48:55.895Z,27.70
2022-08-17T18:51:27.438Z,27.80
2022-08-17T18:54:09.089Z,27.70
2022-08-17T18:56:35.645Z,27.70
2022-08-17T18:59:02.183Z,27.70
2022-08-17T19:01:41.970Z,27.70
2022-08-17T19:04:15.216Z,27.70
2022-08-17T19:06:41.757Z,27.80
2022-08-17T19:09:08.274Z,27.70
2022-08-17T19:11:34.786Z,27.70
2022-08-17T19:14:01.291Z,27.70
2022-08-17T19:16:27.822Z,27.60
2022-08-17T19:18:54.333Z,27.70
2022-08-17T19:21:20.876Z,27.60
2022-08-17T19:23:53.579Z,27.60
2022-08-17T19:26:54.159Z,27.70
2022-08-17T19:29:07.520Z,27.70
2022-08-17T19:31:36.304Z,27.60
2022-08-17T19:34:02.845Z,27.70
2022-08-17T19:36:29.362Z,27.70
2022-08-17T19:38:55.895Z,27.60
2022-08-17T19:41:22.438Z,27.70
2022-08-17T19:43:48.959Z,27.70
2022-08-17T19:46:15.490Z,27.70
2022-08-17T19:48:42.029Z,27.70
2022-08-17T19:51:08.561Z,27.60
2022-08-17T19:54:01.667Z,27.60
2022-08-17T19:56:21.644Z,27.60
2022-08-17T19:58:48.198Z,27.60
2022-08-17T20:01:14.788Z,27.60
2022-08-17T20:03:41.339Z,27.60
2022-08-17T20:06:15.061Z,27.60
2022-08-17T20:08:41.659Z,27.60
2022-08-17T20:11:08.196Z,27.50
2022-08-17T20:13:34.715Z,27.60
2022-08-17T20:16:01.234Z,27.60
2022-08-17T20:18:27.778Z,27.60
2022-08-17T20:20:54.918Z,27.50
2022-08-17T20:23:22.415Z,27.50
2022-08-17T20:25:48.951Z,27.50
2022-08-17T20:28:15.466Z,27.50
2022-08-17T20:30:42.628Z,27.50
2022-08-17T20:33:13.106Z,27.50
2022-08-17T20:35:39.890Z,27.50
2022-08-17T20:38:06.424Z,27.50
2022-08-17T20:40:32.979Z,27.50
2022-08-17T20:42:59.515Z,27.50
2022-08-17T20:45:26.208Z,27.50
2022-08-17T20:48:16.007Z,27.50
2022-08-17T20:50:39.434Z,27.50
2022-08-17T20:53:05.964Z,27.50
2022-08-17T20:55:32.487Z,27.50
2022-08-17T20:57:59.080Z,27.50
2022-08-17T21:00:25.603Z,27.50
2022-08-17T21:02:52.119Z,27.40
2022-08-17T21:05:18.661Z,27.50
2022-08-17T21:07:45.163Z,27.50
2022-08-17T21:10:11.717Z,27.40
2022-08-17T21:12:38.230Z,27.40
2022-08-17T21:15:04.778Z,27.40
2022-08-17T21:17:31.293Z,27.50
2022-08-17T21:20:11.043Z,27.40
2022-08-17T21:22:38.217Z,27.40
2022-08-17T21:25:04.753Z,27.40
2022-08-17T21:27:31.269Z,27.40
2022-08-17T21:29:57.797Z,27.40
2022-08-17T21:32:25.332Z,27.40
2022-08-17T21:34:51.941Z,27.40
2022-08-17T21:37:18.482Z,27.30
2022-08-17T21:39:46.110Z,27.40
2022-08-17T21:42:12.635Z,27.40
2022-08-17T21:44:39.162Z,27.40
2022-08-17T21:47:05.678Z,27.40
2022-08-17T21:49:32.213Z,27.40
2022-08-17T21:52:04.405Z,27.40
2022-08-17T21:54:30.926Z,27.40
2022-08-17T21:56:57.451Z,27.40
2022-08-17T21:59:23.952Z,27.30
2022-08-17T22:01:50.735Z,27.30
2022-08-17T22:04:17.309Z,27.30
2022-08-17T22:06:54.298Z,27.30
2022-08-17T22:09:23.568Z,27.30
2022-08-17T22:11:50.109Z,27.30
2022-08-17T22:14:16.623Z,27.30
2022-08-17T22:16:44.057Z,27.30
2022-08-17T22:19:10.578Z,27.20
2022-08-17T22:21:37.118Z,27.30
2022-08-17T22:24:03.633Z,27.30
2022-08-17T22:26:30.162Z,27.30
2022-08-17T22:28:56.680Z,27.30
2022-08-17T22:31:23.244Z,27.20
2022-08-17T22:33:49.780Z,27.20
2022-08-17T22:36:16.307Z,27.20
2022-08-17T22:38:43.619Z,27.30
2022-08-17T22:41:10.291Z,27.30
2022-08-17T22:43:36.815Z,27.20
2022-08-17T22:46:03.341Z,27.20
2022-08-17T22:48:29.865Z,27.30
2022-08-17T22:50:56.412Z,27.20
2022-08-17T22:53:22.940Z,27.20
2022-08-17T22:55:49.484Z,27.20
2022-08-17T22:58:16.014Z,27.20
2022-08-17T23:00:42.582Z,27.20
2022-08-17T23:03:09.258Z,27.20
2022-08-17T23:05:35.855Z,27.20
2022-08-17T23:08:02.373Z,27.20
2022-08-17T23:10:29.049Z,27.20
2022-08-17T23:12:55.563Z,27.20
2022-08-17T23:15:22.085Z,27.20
2022-08-17T23:17:48.710Z,27.20
2022-08-17T23:20:15.395Z,27.20
2022-08-17T23:22:51.911Z,27.20
2022-08-17T23:25:19.584Z,27.20
2022-08-17T23:27:47.170Z,27.20
2022-08-17T23:30:13.739Z,27.10
2022-08-17T23:32:53.250Z,27.20
2022-08-17T23:35:20.567Z,27.20
2022-08-17T23:38:07.070Z,27.20
2022-08-17T23:40:33.591Z,27.10
2022-08-17T23:43:00.136Z,27.10
2022-08-17T23:45:31.132Z,27.10
2022-08-17T23:47:57.669Z,27.20
2022-08-17T23:50:24.204Z,27.10
2022-08-17T23:52:56.490Z,27.10
2022-08-17T23:55:23.005Z,27.10
2022-08-17T23:57:49.704Z,27.10
